• Join FlightAware (Why Join?)
  • Login
  • US Flag 
01:12AM EDT


 

Airport Tracker/Info


-or-


 

Live Flight TrackerFlight Track Log ✈ SJ619 ✈ 13-May-2013 ✈ CYBC - CYQB

Flight Track Log - Related Links

Times and Time Zones

All times are in EDT time to prevent confusion due to time zone crossing. See the SJ619 flight status page for this flight to view local times or setup timezone preferences in your user account.

Time Position Orientation Groundspeed Altitude Reporting Facility
EDT Latitude Longitude Course Direction KTS MPH feet Rate Location/Type
01:23PM 49.0167 -68.3167 216° Southwest 160 184 6,800  Level Montreal Center
01:24PM 48.9833 -68.3500 213° Southwest 170 196 8,800 1,680 Climbing Montreal Center
01:25PM 48.9500 -68.4000 225° Southwest 180 207 10,200 600 Climbing Montreal Center
01:26PM 48.8215 -68.6544 218° Southwest  Level Estimated
01:26PM 48.9000 -68.4667 221° Southwest 210 242 10,100  Level Montreal Center
01:27PM 48.7723 -68.7092 216° Southwest  Level FlightAware Approximate
01:27PM 48.8500 -68.5000 204° Southwest 230 265 10,200  Level Montreal Center
01:28PM 48.7230 -68.7639 216° Southwest  Level FlightAware Approximate
01:28PM 48.7833 -68.5667 213° Southwest 230 265 10,200  Level Montreal Center
01:29PM 48.7333 -68.6500 228° Southwest 230 265 10,100  Descending Montreal Center
01:30PM 48.7000 -68.7000 225° Southwest 220 253 10,200 60 Climbing Montreal Center
01:31PM 48.6500 -68.7833 228° Southwest 220 253 10,300 60 Climbing Montreal Center
01:32PM 48.5833 -68.8500 213° Southwest 220 253 10,400 120 Climbing Montreal Center
01:33PM 48.5333 -68.8833 204° Southwest 220 253 10,600 240 Climbing Montreal Center
01:34PM 48.4833 -68.9333 214° Southwest 220 253 10,900 180 Climbing Montreal Center
01:35PM 48.4167 -68.9667 198° South 220 253 11,000 180 Climbing Montreal Center
01:36PM 48.3833 -69.0333 233° Southwest 220 253 11,300 120 Climbing Montreal Center
01:37PM 48.3333 -69.0833 214° Southwest 220 253 11,300  Level Montreal Center
01:38PM 48.3000 -69.1333 225° Southwest 220 253 11,400  Climbing Montreal Center
01:39PM 48.2500 -69.2167 228° Southwest 220 253 11,400  Level Montreal Center
01:40PM 48.2000 -69.2833 222° Southwest 220 253 11,400  Level Montreal Center
01:41PM 48.1667 -69.3333 225° Southwest 210 242 11,500  Climbing Montreal Center
01:42PM 48.1167 -69.4000 222° Southwest 210 242 11,400 -120 Descending Montreal Center
01:43PM 48.0667 -69.4500 214° Southwest 220 253 11,300 -60 Descending Montreal Center
01:44PM 48.0167 -69.5000 214° Southwest 220 253 11,300 -60 Level Montreal Center
01:45PM 47.9500 -69.5333 199° South 230 265 11,200 -120 Descending Montreal Center
01:46PM 47.9000 -69.6000 222° Southwest 220 253 11,100 -60 Descending Montreal Center
01:47PM 47.8667 -69.6500 225° Southwest 230 265 11,100 -180 Level Montreal Center
01:48PM 47.8167 -69.7167 222° Southwest 230 265 10,800 -120 Descending Montreal Center
01:49PM 47.7500 -69.7667 207° Southwest 230 265 10,900 -120 Climbing Montreal Center
01:50PM 47.7000 -69.8167 214° Southwest 220 253 10,600 -120 Descending Montreal Center
01:51PM 47.6500 -69.8833 222° Southwest 220 253 10,700  Climbing Montreal Center
01:52PM 47.6000 -69.9333 214° Southwest 220 253 10,700 180 Level Montreal Center
01:53PM 47.5667 -69.9833 225° Southwest 220 253 11,100 240 Climbing Montreal Center
01:54PM 47.5167 -70.0500 222° Southwest 220 253 11,200 60 Climbing Montreal Center
01:55PM 47.4667 -70.1000 214° Southwest 220 253 11,300 60 Climbing Montreal Center
01:56PM 47.4167 -70.1500 214° Southwest 220 253 11,400 120 Climbing Montreal Center
01:57PM 47.3667 -70.2333 228° Southwest 220 253 11,600  Climbing Montreal Center
01:58PM 47.3333 -70.2833 225° Southwest 220 253 11,500 -120 Descending Montreal Center
01:59PM 47.3000 -70.3667 239° Southwest 220 253 11,400 -60 Descending Montreal Center
02:00PM 47.2500 -70.4333 222° Southwest 230 265 11,400 -180 Level Montreal Center
02:01PM 47.2000 -70.5000 222° Southwest 230 265 11,100 -300 Descending Montreal Center
02:02PM 47.1667 -70.5833 240° Southwest 230 265 10,800 -300 Descending Montreal Center
02:03PM 47.1167 -70.6667 229° Southwest 230 265 10,600 -180 Descending Montreal Center
02:04PM 47.1000 -70.7333 250° West 230 265 10,500 -60 Descending Montreal Center
02:05PM 47.0667 -70.8167 240° Southwest 220 253 10,500  Level Montreal Center
02:06PM 47.0333 -70.9000 240° Southwest 220 253 10,500 -300 Level Montreal Center
02:07PM 47.0000 -70.9667 234° Southwest 220 253 9,900 -1,140 Descending Montreal Center
02:08PM 46.9667 -71.0500 240° Southwest 230 265 8,300 -1,740 Descending Montreal Center
02:09PM 46.9500 -71.1500 256° West 230 265 6,500 -1,920 Descending Montreal Center
02:10PM 46.9167 -71.2000 226° Southwest 200 230 4,500 -1,920 Descending Montreal Center
02:11PM 46.8667 -71.2500 214° Southwest 180 207 2,700 -1,620 Descending Montreal Center
02:12PM 46.8333 -71.2833 214° Southwest 170 196 1,300 -1,020 Descending Montreal Center
02:13PM 46.8167 -71.3333 244° Southwest 120 138 700 -540 Descending Montreal Center
02:14PM 46.7833 -71.3667 214° Southwest 110 127 300 -420 Descending Montreal Center